Time;durP1;ratioP1;P1;durP2;ratioP2;P2;SDS_P1;SDS_P2;PMS_P1;PMS_P2;Temp;Humidity;BMP_temperature;BMP_pressure;BME280_temperature;BME280_humidity;BME280_pressure;Samples;Min_cycle;Max_cycle;Signal;HPM_P1;HPM_P2
2023/04/05 00:00:12;;;;;;;;;;;20.30;41.70;;;;;;1513198;78;661;-65
2023/04/05 00:02:17;;;;;;;;;;;20.30;41.70;;;;;;1504472;78;1467;-66
2023/04/05 00:04:22;;;;;;;;;;;20.30;41.80;;;;;;1512588;78;1933;-65
2023/04/05 00:06:25;;;;;;;;;;;20.30;41.70;;;;;;1517934;78;1020;-66
2023/04/05 00:08:27;;;;;;;;;;;20.30;41.70;;;;;;1507079;78;970;-66
2023/04/05 00:10:28;;;;;;;;;;;20.30;41.70;;;;;;1505276;78;1046;-65
2023/04/05 00:12:30;;;;;;;;;;;20.30;41.70;;;;;;1512158;78;690;-69
2023/04/05 00:14:32;;;;;;;;;;;20.30;41.70;;;;;;1514348;77;1135;-65
2023/04/05 00:16:35;;;;;;;;;;;20.30;41.80;;;;;;1488960;77;1511;-66
2023/04/05 00:18:37;;;;;;;;;;;20.30;41.70;;;;;;1487549;78;685;-67
2023/04/05 00:20:39;;;;;;;;;;;20.30;41.70;;;;;;1486350;78;653;-66
2023/04/05 00:22:43;;;;;;;;;;;20.30;41.70;;;;;;1475567;78;711;-66
2023/04/05 00:24:44;;;;;;;;;;;20.30;41.70;;;;;;1473718;78;1952;-66
2023/04/05 00:26:46;;;;;;;;;;;20.40;41.70;;;;;;1481296;78;744;-66
2023/04/05 00:28:48;;;;;;;;;;;20.30;41.70;;;;;;1483943;78;749;-72
2023/04/05 00:30:51;;;;;;;;;;;20.30;41.70;;;;;;1497346;78;1559;-66
2023/04/05 00:32:53;;;;;;;;;;;20.30;41.70;;;;;;1469803;78;684;-65
2023/04/05 00:34:55;;;;;;;;;;;20.30;41.70;;;;;;1487080;78;1137;-66
2023/04/05 00:36:57;;;;;;;;;;;20.30;41.70;;;;;;1479053;78;720;-66
2023/04/05 00:38:59;;;;;;;;;;;20.30;41.70;;;;;;1475771;78;720;-66
2023/04/05 00:41:01;;;;;;;;;;;20.30;41.70;;;;;;1478038;78;784;-65
2023/04/05 00:43:02;;;;;;;;;;;20.30;41.70;;;;;;1485676;78;1130;-65
2023/04/05 00:45:05;;;;;;;;;;;20.30;41.70;;;;;;1484210;78;1957;-66
2023/04/05 00:47:07;;;;;;;;;;;20.30;41.70;;;;;;1482445;78;731;-66
2023/04/05 00:49:09;;;;;;;;;;;20.30;41.70;;;;;;1486323;78;774;-66
2023/04/05 00:51:11;;;;;;;;;;;20.30;41.70;;;;;;1488416;78;747;-66
2023/04/05 00:53:12;;;;;;;;;;;20.20;41.60;;;;;;1483493;78;1194;-67
2023/04/05 00:55:15;;;;;;;;;;;20.30;41.70;;;;;;1487581;78;683;-67
2023/04/05 00:57:17;;;;;;;;;;;20.30;41.70;;;;;;1483977;78;783;-66
2023/04/05 00:59:20;;;;;;;;;;;20.20;41.50;;;;;;1464367;78;1534;-66
2023/04/05 01:01:22;;;;;;;;;;;20.30;41.70;;;;;;1480866;78;691;-66
2023/04/05 01:03:24;;;;;;;;;;;20.30;41.70;;;;;;1487077;78;1129;-66
2023/04/05 01:05:37;;;;;;;;;;;20.30;41.70;;;;;;1484559;78;1927;-67
2023/04/05 01:07:43;;;;;;;;;;;20.30;41.70;;;;;;1485507;78;973;-66
2023/04/05 01:09:47;;;;;;;;;;;20.30;41.70;;;;;;1478111;78;998;-67
2023/04/05 01:11:49;;;;;;;;;;;20.30;41.80;;;;;;1474591;78;692;-67
2023/04/05 01:13:51;;;;;;;;;;;20.30;41.70;;;;;;1478631;78;1582;-67
2023/04/05 01:15:53;;;;;;;;;;;20.20;41.50;;;;;;1460979;80;1159;-66
2023/04/05 01:17:56;;;;;;;;;;;20.30;41.70;;;;;;1487010;78;723;-66
2023/04/05 01:19:59;;;;;;;;;;;20.30;41.70;;;;;;1481786;78;768;-71
2023/04/05 01:22:19;;;;;;;;;;;20.30;41.70;;;;;;1482351;78;748;-65
2023/04/05 01:24:40;;;;;;;;;;;20.20;41.60;;;;;;1479338;78;1948;-66
2023/04/05 01:26:44;;;;;;;;;;;20.20;41.60;;;;;;1480843;78;1378;-66
2023/04/05 01:29:04;;;;;;;;;;;20.20;41.60;;;;;;1466799;78;1096;-66
2023/04/05 01:31:13;;;;;;;;;;;20.20;41.70;;;;;;1480141;78;699;-66
2023/04/05 01:33:25;;;;;;;;;;;20.20;41.70;;;;;;1478755;78;1114;-67
2023/04/05 01:35:41;;;;;;;;;;;20.20;41.70;;;;;;1474397;78;740;-65
2023/04/05 01:37:43;;;;;;;;;;;20.20;41.70;;;;;;1482695;78;694;-65
2023/04/05 01:39:47;;;;;;;;;;;20.20;41.60;;;;;;1471251;78;853;-66
2023/04/05 01:41:48;;;;;;;;;;;20.20;41.70;;;;;;1481591;78;1603;-66
2023/04/05 01:43:50;;;;;;;;;;;20.20;41.70;;;;;;1487092;78;1129;-66
2023/04/05 01:45:52;;;;;;;;;;;20.20;41.70;;;;;;1476046;78;1948;-67
2023/04/05 01:47:54;;;;;;;;;;;20.20;41.70;;;;;;1482240;78;726;-66
2023/04/05 01:49:56;;;;;;;;;;;20.20;41.60;;;;;;1485514;80;753;-66
2023/04/05 01:51:57;;;;;;;;;;;20.20;41.70;;;;;;1483991;78;675;-66
2023/04/05 01:53:59;;;;;;;;;;;20.20;41.60;;;;;;1480873;78;1182;-66
2023/04/05 01:56:01;;;;;;;;;;;20.20;41.60;;;;;;1481721;78;1686;-66
2023/04/05 01:58:03;;;;;;;;;;;20.20;41.70;;;;;;1484863;78;725;-66
2023/04/05 02:00:06;;;;;;;;;;;20.20;41.60;;;;;;1475889;78;686;-65
2023/04/05 02:02:07;;;;;;;;;;;20.20;41.60;;;;;;1470203;78;738;-65
2023/04/05 02:04:09;;;;;;;;;;;20.20;41.60;;;;;;1481173;78;1109;-66
2023/04/05 02:06:11;;;;;;;;;;;20.20;41.60;;;;;;1480712;78;1916;-66
2023/04/05 02:08:13;;;;;;;;;;;20.20;41.60;;;;;;1476809;78;717;-67
2023/04/05 02:10:15;;;;;;;;;;;20.20;41.60;;;;;;1474236;78;1624;-67
2023/04/05 02:12:17;;;;;;;;;;;20.20;41.60;;;;;;1490607;78;945;-67
2023/04/05 02:14:19;;;;;;;;;;;20.20;41.60;;;;;;1488307;78;1149;-67
2023/04/05 02:16:21;;;;;;;;;;;20.20;41.60;;;;;;1491699;77;1131;-65
2023/04/05 02:18:28;;;;;;;;;;;20.20;41.50;;;;;;1488102;78;673;-66
2023/04/05 02:20:26;;;;;;;;;;;20.20;41.60;;;;;;1495351;78;1144;-65
2023/04/05 02:22:28;;;;;;;;;;;20.20;41.60;;;;;;1499867;78;1301;-65
2023/04/05 02:24:30;;;;;;;;;;;20.20;41.60;;;;;;1486353;78;1934;-66
2023/04/05 02:26:32;;;;;;;;;;;20.20;41.60;;;;;;1485203;78;721;-66
2023/04/05 02:28:34;;;;;;;;;;;20.20;41.60;;;;;;1489300;78;806;-66
2023/04/05 02:30:36;;;;;;;;;;;20.20;41.60;;;;;;1502347;78;789;-66
2023/04/05 02:32:38;;;;;;;;;;;20.20;41.50;;;;;;1486723;78;612;-65
2023/04/05 02:34:40;;;;;;;;;;;20.20;41.60;;;;;;1487931;78;1143;-66
2023/04/05 02:36:42;;;;;;;;;;;20.20;41.60;;;;;;1495038;78;1445;-66
2023/04/05 02:38:44;;;;;;;;;;;20.20;41.60;;;;;;1494420;78;720;-67
2023/04/05 02:40:48;;;;;;;;;;;20.20;41.60;;;;;;1492256;77;769;-65
2023/04/05 02:42:50;;;;;;;;;;;20.10;41.60;;;;;;1508053;78;702;-66
2023/04/05 02:44:52;;;;;;;;;;;20.20;41.60;;;;;;1498961;78;1955;-66
2023/04/05 02:46:54;;;;;;;;;;;20.10;41.50;;;;;;1492213;78;744;-66
2023/04/05 02:48:55;;;;;;;;;;;20.20;41.60;;;;;;1502946;78;688;-66
2023/04/05 02:50:57;;;;;;;;;;;20.20;41.50;;;;;;1499750;78;1599;-66
2023/04/05 02:52:59;;;;;;;;;;;20.20;41.50;;;;;;1492936;78;1155;-71
2023/04/05 02:55:01;;;;;;;;;;;20.20;41.50;;;;;;1493422;78;751;-66
2023/04/05 02:57:03;;;;;;;;;;;20.20;41.50;;;;;;1501854;78;749;-65
2023/04/05 02:59:05;;;;;;;;;;;20.10;41.50;;;;;;1500131;78;752;-66
2023/04/05 03:01:07;;;;;;;;;;;20.10;41.50;;;;;;1483367;78;684;-66
2023/04/05 03:03:09;;;;;;;;;;;20.20;41.50;;;;;;1494152;78;1201;-66
2023/04/05 03:05:12;;;;;;;;;;;20.20;41.60;;;;;;1494146;78;1941;-66
2023/04/05 03:07:17;;;;;;;;;;;20.10;41.50;;;;;;1503591;78;698;-65
2023/04/05 03:09:18;;;;;;;;;;;20.10;41.50;;;;;;1489440;78;1127;-65
2023/04/05 03:11:20;;;;;;;;;;;20.10;41.50;;;;;;1498702;78;698;-65
2023/04/05 03:13:21;;;;;;;;;;;20.10;41.50;;;;;;1502636;78;1147;-66
2023/04/05 03:15:23;;;;;;;;;;;20.20;41.50;;;;;;1497399;78;716;-65
2023/04/05 03:17:25;;;;;;;;;;;20.20;41.50;;;;;;1487792;78;1108;-66
2023/04/05 03:19:27;;;;;;;;;;;20.20;41.50;;;;;;1491472;78;1537;-66
2023/04/05 03:21:29;;;;;;;;;;;20.20;41.50;;;;;;1493318;78;721;-66
2023/04/05 03:23:32;;;;;;;;;;;20.10;41.50;;;;;;1500293;78;1214;-66
2023/04/05 03:25:36;;;;;;;;;;;20.20;41.50;;;;;;1497262;78;1912;-67
2023/04/05 03:27:38;;;;;;;;;;;20.10;41.60;;;;;;1492554;78;627;-66
2023/04/05 03:29:41;;;;;;;;;;;20.10;41.50;;;;;;1486297;78;750;-66
2023/04/05 03:31:45;;;;;;;;;;;20.10;41.60;;;;;;1505358;78;726;-66
2023/04/05 03:33:46;;;;;;;;;;;20.10;41.60;;;;;;1498235;78;1310;-66
2023/04/05 03:35:48;;;;;;;;;;;20.10;41.60;;;;;;1499653;78;718;-66
2023/04/05 03:37:50;;;;;;;;;;;20.10;41.60;;;;;;1495316;78;598;-66
2023/04/05 03:39:52;;;;;;;;;;;20.10;41.60;;;;;;1495376;78;724;-66
2023/04/05 03:41:55;;;;;;;;;;;20.10;41.60;;;;;;1503585;78;718;-66
2023/04/05 03:43:57;;;;;;;;;;;20.10;41.50;;;;;;1495483;78;1149;-67
2023/04/05 03:45:59;;;;;;;;;;;20.10;41.60;;;;;;1490409;78;1920;-67
2023/04/05 03:48:01;;;;;;;;;;;20.10;41.50;;;;;;1501780;78;1543;-67
2023/04/05 03:50:03;;;;;;;;;;;20.10;41.50;;;;;;1507722;78;710;-66
2023/04/05 03:52:05;;;;;;;;;;;20.10;41.60;;;;;;1502331;78;635;-66
2023/04/05 03:54:07;;;;;;;;;;;20.10;41.60;;;;;;1483034;78;1150;-66
2023/04/05 03:56:09;;;;;;;;;;;20.20;41.50;;;;;;1492278;78;723;-66
2023/04/05 03:58:11;;;;;;;;;;;20.10;41.60;;;;;;1503476;78;717;-65
2023/04/05 04:00:13;;;;;;;;;;;20.10;41.60;;;;;;1493072;78;673;-66
2023/04/05 04:02:15;;;;;;;;;;;20.20;41.50;;;;;;1502088;78;1404;-65
2023/04/05 04:04:17;;;;;;;;;;;20.20;41.50;;;;;;1496306;78;1195;-66
2023/04/05 04:06:19;;;;;;;;;;;20.10;41.50;;;;;;1504544;78;1926;-66
2023/04/05 04:08:21;;;;;;;;;;;20.10;41.60;;;;;;1495351;78;746;-65
2023/04/05 04:10:22;;;;;;;;;;;20.10;41.50;;;;;;1507904;78;863;-65
2023/04/05 04:12:24;;;;;;;;;;;20.10;41.50;;;;;;1495325;78;720;-66
2023/04/05 04:14:26;;;;;;;;;;;20.20;41.50;;;;;;1501992;78;1158;-65
2023/04/05 04:16:30;;;;;;;;;;;20.20;41.50;;;;;;1496120;78;1586;-66
2023/04/05 04:18:33;;;;;;;;;;;20.10;41.50;;;;;;1503246;78;1125;-65
2023/04/05 04:20:35;;;;;;;;;;;20.10;41.50;;;;;;1504591;78;753;-66
2023/04/05 04:22:41;;;;;;;;;;;20.10;41.60;;;;;;1497124;78;735;-66
2023/04/05 04:24:45;;;;;;;;;;;20.20;41.60;;;;;;1496058;78;1197;-66
2023/04/05 04:26:46;;;;;;;;;;;20.10;41.70;;;;;;1502725;78;1922;-65
2023/04/05 04:28:48;;;;;;;;;;;20.10;41.70;;;;;;1490034;78;1079;-66
2023/04/05 04:30:50;;;;;;;;;;;20.10;41.80;;;;;;1489685;78;1591;-65
2023/04/05 04:32:53;;;;;;;;;;;20.10;41.80;;;;;;1496115;78;1069;-66
2023/04/05 04:34:55;;;;;;;;;;;20.10;41.80;;;;;;1497768;78;1111;-66
2023/04/05 04:37:03;;;;;;;;;;;20.10;41.80;;;;;;1495868;78;745;-66
2023/04/05 04:39:05;;;;;;;;;;;20.10;41.80;;;;;;1485000;78;784;-66
2023/04/05 04:41:08;;;;;;;;;;;20.10;41.80;;;;;;1496479;78;751;-66
2023/04/05 04:43:15;;;;;;;;;;;20.10;41.80;;;;;;1495420;78;1607;-66
2023/04/05 04:45:17;;;;;;;;;;;20.10;41.80;;;;;;1499681;78;1159;-66
2023/04/05 04:47:20;;;;;;;;;;;20.10;41.80;;;;;;1503194;78;790;-65
2023/04/05 04:49:22;;;;;;;;;;;20.10;41.90;;;;;;1506663;78;648;-66
2023/04/05 04:51:25;;;;;;;;;;;20.10;41.90;;;;;;1491827;78;956;-65
2023/04/05 04:53:26;;;;;;;;;;;20.10;41.90;;;;;;1500420;78;1156;-66
2023/04/05 04:55:29;;;;;;;;;;;20.10;41.90;;;;;;1499856;78;759;-65
2023/04/05 04:57:31;;;;;;;;;;;20.10;41.90;;;;;;1497937;78;1545;-65
2023/04/05 04:59:33;;;;;;;;;;;20.10;41.80;;;;;;1491682;78;712;-65
2023/04/05 05:01:36;;;;;;;;;;;20.10;41.80;;;;;;1495019;78;723;-66
2023/04/05 05:03:38;;;;;;;;;;;20.10;41.90;;;;;;1495905;78;1573;-65
2023/04/05 05:05:43;;;;;;;;;;;20.20;41.90;;;;;;1500895;78;1934;-66
2023/04/05 05:07:45;;;;;;;;;;;20.10;41.90;;;;;;1492388;78;706;-66
2023/04/05 05:09:51;;;;;;;;;;;20.10;41.80;;;;;;1482934;78;561;-66
2023/04/05 05:11:50;;;;;;;;;;;20.10;41.80;;;;;;1497062;78;1595;-66
2023/04/05 05:13:52;;;;;;;;;;;20.20;41.80;;;;;;1494429;78;1157;-67
2023/04/05 05:15:55;;;;;;;;;;;20.30;41.90;;;;;;1507339;78;704;-71
2023/04/05 05:17:57;;;;;;;;;;;20.20;41.70;;;;;;1488667;78;1112;-66
2023/04/05 05:20:02;;;;;;;;;;;20.50;41.80;;;;;;1498695;78;635;-66
2023/04/05 05:22:04;;;;;;;;;;;20.70;41.90;;;;;;1511361;78;704;-66
2023/04/05 05:24:08;;;;;;;;;;;21.20;42.30;;;;;;1504116;77;1165;-66
2023/04/05 05:26:11;;;;;;;;;;;21.90;42.30;;;;;;1505627;77;1937;-71
2023/04/05 05:28:13;;;;;;;;;;;22.50;41.40;;;;;;1503471;78;733;-67
2023/04/05 05:30:15;;;;;;;;;;;23.00;40.20;;;;;;1497640;78;702;-67
2023/04/05 05:32:17;;;;;;;;;;;23.50;39.00;;;;;;1502261;78;687;-71
2023/04/05 05:34:19;;;;;;;;;;;23.70;37.60;;;;;;1496251;77;1133;-67
2023/04/05 05:36:22;;;;;;;;;;;24.00;36.30;;;;;;1501183;78;730;-67
2023/04/05 05:38:24;;;;;;;;;;;24.30;35.60;;;;;;1508218;78;770;-66
2023/04/05 05:40:26;;;;;;;;;;;24.20;34.70;;;;;;1497460;78;1506;-66
2023/04/05 05:42:27;;;;;;;;;;;24.00;34.40;;;;;;1506551;77;718;-66
2023/04/05 05:44:29;;;;;;;;;;;23.80;33.90;;;;;;1501236;78;1121;-65
2023/04/05 05:46:31;;;;;;;;;;;23.60;33.60;;;;;;1498983;77;1942;-69
2023/04/05 05:48:33;;;;;;;;;;;23.30;34.00;;;;;;1510264;77;781;-66
2023/04/05 05:50:35;;;;;;;;;;;23.00;34.50;;;;;;1510654;78;707;-66
2023/04/05 05:52:37;;;;;;;;;;;22.70;35.00;;;;;;1506531;78;677;-65
2023/04/05 05:54:39;;;;;;;;;;;22.60;35.70;;;;;;1502721;78;1315;-66
2023/04/05 05:56:41;;;;;;;;;;;22.60;36.10;;;;;;1510388;78;703;-66
2023/04/05 05:58:43;;;;;;;;;;;22.50;36.40;;;;;;1494594;77;699;-66
2023/04/05 06:00:45;;;;;;;;;;;22.40;36.50;;;;;;1498373;78;689;-65
2023/04/05 06:02:47;;;;;;;;;;;22.20;37.60;;;;;;1509509;78;794;-65
2023/04/05 06:04:49;;;;;;;;;;;22.00;38.00;;;;;;1502814;78;1131;-66
2023/04/05 06:06:51;;;;;;;;;;;22.00;38.00;;;;;;1493203;77;1921;-66
2023/04/05 06:08:53;;;;;;;;;;;21.90;38.00;;;;;;1510875;77;1585;-65
2023/04/05 06:10:55;;;;;;;;;;;21.80;37.80;;;;;;1501152;78;734;-65
2023/04/05 06:12:57;;;;;;;;;;;21.80;37.80;;;;;;1498857;78;640;-66
2023/04/05 06:14:59;;;;;;;;;;;21.80;37.60;;;;;;1493993;77;736;-65
2023/04/05 06:17:01;;;;;;;;;;;21.70;37.60;;;;;;1508975;78;751;-66
2023/04/05 06:19:03;;;;;;;;;;;21.70;37.60;;;;;;1494217;78;1153;-66
2023/04/05 06:21:05;;;;;;;;;;;21.60;37.60;;;;;;1498516;78;761;-67
2023/04/05 06:23:07;;;;;;;;;;;21.50;37.60;;;;;;1482735;78;1387;-66
2023/04/05 06:25:11;;;;;;;;;;;21.50;37.60;;;;;;1498152;78;673;-66
2023/04/05 06:27:13;;;;;;;;;;;21.40;37.60;;;;;;1498368;78;1918;-65
2023/04/05 06:29:15;;;;;;;;;;;21.40;37.70;;;;;;1498961;78;733;-65
2023/04/05 06:31:19;;;;;;;;;;;21.40;37.80;;;;;;1504431;78;727;-66
2023/04/05 06:33:21;;;;;;;;;;;21.40;37.80;;;;;;1491157;78;1169;-66
2023/04/05 06:35:23;;;;;;;;;;;21.30;38.00;;;;;;1490616;78;735;-67
2023/04/05 06:37:25;;;;;;;;;;;21.20;37.90;;;;;;1491502;78;1687;-66
2023/04/05 06:39:27;;;;;;;;;;;21.20;38.00;;;;;;1478169;80;756;-66
2023/04/05 06:41:29;;;;;;;;;;;21.10;38.10;;;;;;1498792;79;724;-66
2023/04/05 06:43:31;;;;;;;;;;;21.20;38.10;;;;;;1556695;75;1179;-66
2023/04/05 06:45:33;;;;;;;;;;;21.10;38.20;;;;;;1554579;75;708;-65
2023/04/05 06:47:35;;;;;;;;;;;21.10;38.20;;;;;;1553149;75;1946;-66
2023/04/05 06:49:37;;;;;;;;;;;21.10;38.40;;;;;;1554500;75;728;-66
2023/04/05 06:51:39;;;;;;;;;;;21.10;39.20;;;;;;1555605;75;1828;-67
2023/04/05 06:53:41;;;;;;;;;;;21.10;39.80;;;;;;1544833;75;1166;-65
2023/04/05 06:55:45;;;;;;;;;;;21.20;40.20;;;;;;1558036;75;645;-66
2023/04/05 06:57:47;;;;;;;;;;;21.20;40.30;;;;;;1543058;76;1082;-66
2023/04/05 06:59:49;;;;;;;;;;;21.40;40.40;;;;;;1563914;75;721;-66
2023/04/05 07:01:51;;;;;;;;;;;21.40;40.30;;;;;;1545492;75;745;-67
2023/04/05 07:03:52;;;;;;;;;;;21.50;40.20;;;;;;1553761;75;1597;-67
2023/04/05 07:05:55;;;;;;;;;;;21.60;39.90;;;;;;1559844;75;672;-66
2023/04/05 07:07:57;;;;;;;;;;;21.60;39.60;;;;;;1563431;75;1911;-66
2023/04/05 07:09:59;;;;;;;;;;;21.70;39.30;;;;;;1563734;75;705;-66
2023/04/05 07:12:04;;;;;;;;;;;21.70;39.10;;;;;;1557715;75;686;-66
2023/04/05 07:14:06;;;;;;;;;;;21.70;38.80;;;;;;1544667;75;1151;-65
2023/04/05 07:16:08;;;;;;;;;;;21.80;38.50;;;;;;1557418;75;790;-67
2023/04/05 07:18:10;;;;;;;;;;;21.70;38.30;;;;;;1555357;75;1637;-66
2023/04/05 07:20:13;;;;;;;;;;;21.70;38.30;;;;;;1557210;75;1182;-66
2023/04/05 07:22:14;;;;;;;;;;;21.70;38.40;;;;;;1551350;75;782;-66
2023/04/05 07:24:16;;;;;;;;;;;21.70;38.30;;;;;;1555009;75;1127;-67
2023/04/05 07:26:19;;;;;;;;;;;21.70;38.50;;;;;;1539498;75;1939;-67
2023/04/05 07:28:21;;;;;;;;;;;21.70;38.40;;;;;;1537015;75;706;-66
2023/04/05 07:30:22;;;;;;;;;;;21.80;38.10;;;;;;1555634;75;774;-66
2023/04/05 07:32:24;;;;;;;;;;;21.80;38.10;;;;;;1548701;75;1538;-66
2023/04/05 07:34:27;;;;;;;;;;;21.90;38.10;;;;;;1554155;75;1141;-65
2023/04/05 07:36:29;;;;;;;;;;;21.90;38.00;;;;;;1538875;75;732;-67
2023/04/05 07:38:31;;;;;;;;;;;22.00;38.10;;;;;;1544171;75;738;-65
2023/04/05 07:40:33;;;;;;;;;;;22.00;38.00;;;;;;1549150;75;706;-66
2023/04/05 07:42:35;;;;;;;;;;;22.00;37.90;;;;;;1557826;75;741;-66
2023/04/05 07:44:37;;;;;;;;;;;22.00;37.80;;;;;;1549512;75;1196;-65
2023/04/05 07:46:43;;;;;;;;;;;22.10;37.90;;;;;;1558290;75;1924;-66
2023/04/05 07:48:42;;;;;;;;;;;22.00;37.80;;;;;;1550243;75;1076;-66
2023/04/05 07:50:46;;;;;;;;;;;22.00;37.80;;;;;;1562551;75;750;-66
2023/04/05 07:52:48;;;;;;;;;;;22.10;38.00;;;;;;1556121;75;1565;-67
2023/04/05 07:54:51;;;;;;;;;;;22.00;37.80;;;;;;1552500;75;1110;-66
2023/04/05 07:56:54;;;;;;;;;;;22.00;37.80;;;;;;1544228;75;1037;-66
2023/04/05 07:58:56;;;;;;;;;;;22.00;38.10;;;;;;1555921;75;693;-72
2023/04/05 08:01:01;;;;;;;;;;;22.00;38.00;;;;;;1568787;75;1549;-66
2023/04/05 08:03:03;;;;;;;;;;;21.90;38.00;;;;;;1563055;75;1158;-66
2023/04/05 08:05:05;;;;;;;;;;;21.90;38.10;;;;;;1545783;75;806;-66
2023/04/05 08:07:07;;;;;;;;;;;21.90;38.10;;;;;;1539060;75;1942;-66
2023/04/05 08:09:10;;;;;;;;;;;21.80;38.20;;;;;;1551847;75;717;-65
2023/04/05 08:11:12;;;;;;;;;;;21.80;38.20;;;;;;1563241;75;698;-67
2023/04/05 08:13:13;;;;;;;;;;;21.90;38.30;;;;;;1551188;75;1168;-65
2023/04/05 08:15:15;;;;;;;;;;;21.90;38.30;;;;;;1569186;75;1570;-66
2023/04/05 08:17:18;;;;;;;;;;;21.90;38.30;;;;;;1550229;75;719;-66
2023/04/05 08:19:19;;;;;;;;;;;21.80;38.20;;;;;;1550812;75;1110;-66
2023/04/05 08:21:22;;;;;;;;;;;21.80;38.30;;;;;;1537402;76;680;-66
2023/04/05 08:23:24;;;;;;;;;;;21.90;38.40;;;;;;1548931;76;1213;-67
2023/04/05 08:25:26;;;;;;;;;;;21.80;38.20;;;;;;1533315;76;691;-66
2023/04/05 08:27:27;;;;;;;;;;;21.80;38.30;;;;;;1535565;76;1949;-66
2023/04/05 08:29:29;;;;;;;;;;;21.80;38.20;;;;;;1536204;76;1310;-66
2023/04/05 08:31:32;;;;;;;;;;;21.90;38.30;;;;;;1541648;76;690;-65
2023/04/05 08:33:34;;;;;;;;;;;21.90;38.30;;;;;;1531964;76;1135;-66
2023/04/05 08:35:36;;;;;;;;;;;21.80;38.10;;;;;;1534712;76;773;-67
2023/04/05 08:37:38;;;;;;;;;;;21.80;38.20;;;;;;1539890;76;843;-66
2023/04/05 08:39:40;;;;;;;;;;;21.90;38.30;;;;;;1536970;76;742;-65
2023/04/05 08:41:44;;;;;;;;;;;21.80;38.20;;;;;;1526837;76;732;-66
2023/04/05 08:43:53;;;;;;;;;;;21.80;38.30;;;;;;1544825;76;1481;-67
2023/04/05 08:45:55;;;;;;;;;;;21.90;38.30;;;;;;1528825;76;800;-66
2023/04/05 08:47:57;;;;;;;;;;;21.90;38.40;;;;;;1530064;76;1893;-66
2023/04/05 08:49:59;;;;;;;;;;;21.90;38.20;;;;;;1536302;76;761;-66
2023/04/05 08:52:01;;;;;;;;;;;21.90;38.20;;;;;;1541798;76;680;-65
2023/04/05 08:54:03;;;;;;;;;;;21.90;38.10;;;;;;1547367;76;1133;-65
2023/04/05 08:56:05;;;;;;;;;;;21.90;38.10;;;;;;1535880;76;773;-66
2023/04/05 08:58:09;;;;;;;;;;;21.90;38.10;;;;;;1536572;76;1651;-66
2023/04/05 09:00:11;;;;;;;;;;;22.00;38.10;;;;;;1533766;76;699;-66
2023/04/05 09:02:15;;;;;;;;;;;22.00;38.10;;;;;;1548607;76;732;-66
2023/04/05 09:04:23;;;;;;;;;;;22.00;38.10;;;;;;1532661;76;1104;-66
2023/04/05 09:06:27;;;;;;;;;;;22.00;38.10;;;;;;1546825;76;724;-66
2023/04/05 09:08:29;;;;;;;;;;;21.90;38.00;;;;;;1523590;76;1913;-66
2023/04/05 09:10:31;;;;;;;;;;;22.00;38.10;;;;;;1530430;76;1458;-66
2023/04/05 09:12:34;;;;;;;;;;;21.90;38.10;;;;;;1537619;76;758;-66
2023/04/05 09:14:36;;;;;;;;;;;22.00;38.10;;;;;;1544899;76;1186;-66
2023/04/05 09:16:38;;;;;;;;;;;22.00;38.10;;;;;;1545970;76;670;-66
2023/04/05 09:18:40;;;;;;;;;;;22.00;38.10;;;;;;1530729;76;643;-66
2023/04/05 09:20:42;;;;;;;;;;;22.00;38.10;;;;;;1546052;75;1092;-65
2023/04/05 09:22:44;;;;;;;;;;;22.00;38.00;;;;;;1562299;75;686;-66
2023/04/05 09:24:46;;;;;;;;;;;22.00;38.00;;;;;;1547805;75;1542;-66
2023/04/05 09:26:48;;;;;;;;;;;22.10;38.00;;;;;;1548066;75;769;-66
2023/04/05 09:28:50;;;;;;;;;;;22.10;37.80;;;;;;1554861;75;1931;-66
2023/04/05 09:30:53;;;;;;;;;;;22.10;37.80;;;;;;1543195;75;688;-66
2023/04/05 09:32:55;;;;;;;;;;;22.10;37.80;;;;;;1553847;75;769;-73
2023/04/05 09:35:01;;;;;;;;;;;22.10;37.80;;;;;;1550456;75;1123;-68
2023/04/05 09:37:01;;;;;;;;;;;22.10;37.80;;;;;;1539574;75;1130;-67
2023/04/05 09:39:04;;;;;;;;;;;22.10;37.70;;;;;;1555787;74;1534;-66
2023/04/05 09:41:08;;;;;;;;;;;22.10;37.80;;;;;;1552346;75;722;-67
2023/04/05 09:43:11;;;;;;;;;;;22.10;37.70;;;;;;1551207;75;1147;-67
2023/04/05 09:45:21;;;;;;;;;;;22.10;37.70;;;;;;1547591;75;986;-67
2023/04/05 09:47:21;;;;;;;;;;;22.10;37.60;;;;;;1557820;75;1920;-66
2023/04/05 09:49:32;;;;;;;;;;;22.10;37.60;;;;;;1559405;75;725;-66
2023/04/05 09:51:35;;;;;;;;;;;22.00;37.60;;;;;;1532324;75;723;-66
2023/04/05 09:53:37;;;;;;;;;;;22.00;37.70;;;;;;1536413;75;1624;-66
2023/04/05 09:55:39;;;;;;;;;;;21.90;37.60;;;;;;1536562;75;730;-66
2023/04/05 09:57:45;;;;;;;;;;;21.90;37.80;;;;;;1546301;75;750;-66
2023/04/05 09:59:45;;;;;;;;;;;21.90;37.80;;;;;;1537716;75;812;-67
2023/04/05 10:01:49;;;;;;;;;;;21.90;37.80;;;;;;1543488;75;728;-66
2023/04/05 10:03:51;;;;;;;;;;;22.00;37.80;;;;;;1544705;75;1148;-66
2023/04/05 10:05:54;;;;;;;;;;;22.00;37.80;;;;;;1557290;75;653;-65
2023/04/05 10:07:56;;;;;;;;;;;22.00;37.80;;;;;;1552946;75;1956;-66
2023/04/05 10:09:58;;;;;;;;;;;21.90;37.80;;;;;;1544924;75;731;-66
2023/04/05 10:12:00;;;;;;;;;;;21.90;37.90;;;;;;1559828;75;686;-66
2023/04/05 10:14:06;;;;;;;;;;;21.90;37.90;;;;;;1557973;75;1189;-66
2023/04/05 10:16:06;;;;;;;;;;;21.90;37.90;;;;;;1556594;75;974;-66
2023/04/05 10:18:10;;;;;;;;;;;21.90;37.90;;;;;;1542622;75;756;-66
2023/04/05 10:20:15;;;;;;;;;;;21.90;38.00;;;;;;1547668;75;715;-66
2023/04/05 10:22:19;;;;;;;;;;;21.90;38.20;;;;;;1559959;75;1640;-66
2023/04/05 10:24:25;;;;;;;;;;;21.90;38.00;;;;;;1566529;74;1197;-65
2023/04/05 10:26:30;;;;;;;;;;;21.90;38.10;;;;;;1544904;74;924;-66
2023/04/05 10:28:36;;;;;;;;;;;21.90;38.10;;;;;;1551007;74;1912;-66
2023/04/05 10:30:39;;;;;;;;;;;21.80;37.90;;;;;;1554920;74;1042;-71
2023/04/05 10:32:53;;;;;;;;;;;21.80;38.00;;;;;;1547474;74;953;-67
2023/04/05 10:34:59;;;;;;;;;;;21.80;38.00;;;;;;1564514;74;1533;-65
2023/04/05 10:37:01;;;;;;;;;;;21.80;38.00;;;;;;1551554;74;727;-66
2023/04/05 10:39:04;;;;;;;;;;;21.80;38.10;;;;;;1558652;74;591;-65
2023/04/05 10:41:07;;;;;;;;;;;21.70;38.10;;;;;;1556940;74;705;-67
2023/04/05 10:43:10;;;;;;;;;;;21.70;38.10;;;;;;1547749;74;1158;-67
2023/04/05 10:45:16;;;;;;;;;;;21.70;38.10;;;;;;1548960;74;711;-65
2023/04/05 10:47:16;;;;;;;;;;;21.70;38.20;;;;;;1556784;74;1104;-65
2023/04/05 10:49:29;;;;;;;;;;;21.70;38.30;;;;;;1565631;74;1928;-66
2023/04/05 10:51:30;;;;;;;;;;;21.70;38.30;;;;;;1567544;74;731;-66
2023/04/05 10:53:32;;;;;;;;;;;21.70;38.30;;;;;;1557751;74;1132;-65
2023/04/05 10:55:34;;;;;;;;;;;21.60;38.20;;;;;;1560327;74;721;-66
2023/04/05 10:57:36;;;;;;;;;;;21.60;38.20;;;;;;1553524;74;700;-65
2023/04/05 10:59:42;;;;;;;;;;;21.60;38.30;;;;;;1548550;74;707;-66
2023/04/05 11:01:45;;;;;;;;;;;21.60;38.30;;;;;;1566022;74;725;-66
2023/04/05 11:03:53;;;;;;;;;;;21.60;38.40;;;;;;1566989;74;1350;-65
2023/04/05 11:05:57;;;;;;;;;;;21.60;38.40;;;;;;1556994;74;720;-65
2023/04/05 11:08:06;;;;;;;;;;;21.60;38.50;;;;;;1566621;74;1924;-65
2023/04/05 11:10:08;;;;;;;;;;;21.60;38.40;;;;;;1558448;74;1259;-66
2023/04/05 11:12:10;;;;;;;;;;;21.50;38.50;;;;;;1531951;76;1120;-65
2023/04/05 11:14:19;;;;;;;;;;;21.60;38.50;;;;;;1567649;74;1270;-65
2023/04/05 11:16:21;;;;;;;;;;;21.60;38.60;;;;;;1545097;74;694;-66
2023/04/05 11:18:23;;;;;;;;;;;21.50;38.60;;;;;;1547849;74;1211;-66
2023/04/05 11:20:25;;;;;;;;;;;21.50;38.60;;;;;;1553122;74;729;-66
2023/04/05 11:22:27;;;;;;;;;;;21.60;38.60;;;;;;1562450;76;1092;-66
2023/04/05 11:24:31;;;;;;;;;;;21.50;38.60;;;;;;1565546;74;1197;-67
2023/04/05 11:26:49;;;;;;;;;;;21.50;38.70;;;;;;1555447;74;1108;-66
2023/04/05 11:28:51;;;;;;;;;;;21.40;38.60;;;;;;1553743;74;1947;-66
2023/04/05 11:30:58;;;;;;;;;;;21.40;38.60;;;;;;1523832;76;695;-66
2023/04/05 11:32:57;;;;;;;;;;;21.40;38.70;;;;;;1562111;74;1050;-65
2023/04/05 11:34:59;;;;;;;;;;;21.50;38.90;;;;;;1563221;74;746;-66
2023/04/05 11:37:01;;;;;;;;;;;21.40;38.60;;;;;;1549904;74;738;-66
2023/04/05 11:39:23;;;;;;;;;;;21.40;38.80;;;;;;1563279;74;723;-66
2023/04/05 11:41:25;;;;;;;;;;;21.40;38.70;;;;;;1558915;74;696;-66
2023/04/05 11:43:29;;;;;;;;;;;21.40;38.70;;;;;;1558765;74;1146;-66
2023/04/05 11:45:31;;;;;;;;;;;21.30;38.80;;;;;;1555127;74;1524;-65
2023/04/05 11:47:33;;;;;;;;;;;21.40;38.80;;;;;;1547805;74;717;-66
2023/04/05 11:49:35;;;;;;;;;;;21.40;38.80;;;;;;1543705;76;1948;-66
2023/04/05 11:51:37;;;;;;;;;;;21.30;38.80;;;;;;1548392;74;682;-65
2023/04/05 11:53:39;;;;;;;;;;;21.30;38.80;;;;;;1550292;74;1116;-66
2023/04/05 11:55:42;;;;;;;;;;;21.40;38.80;;;;;;1555748;74;673;-66
2023/04/05 11:57:44;;;;;;;;;;;21.40;38.90;;;;;;1559848;74;718;-66
2023/04/05 11:59:47;;;;;;;;;;;21.30;38.90;;;;;;1550471;74;1523;-66
2023/04/05 12:01:50;;;;;;;;;;;21.40;38.90;;;;;;1521504;76;1239;-65
2023/04/05 12:03:53;;;;;;;;;;;21.30;38.90;;;;;;1561486;74;1153;-75
2023/04/05 12:05:56;;;;;;;;;;;21.40;38.90;;;;;;1564124;74;614;-66
2023/04/05 12:07:58;;;;;;;;;;;21.30;38.90;;;;;;1553074;74;1939;-65
2023/04/05 12:10:15;;;;;;;;;;;21.30;39.00;;;;;;1561605;74;712;-65